Time;durP1;ratioP1;P1;durP2;ratioP2;P2;SDS_P1;SDS_P2;PMS_P1;PMS_P2;Temp;Humidity;BMP_temperature;BMP_pressure;BME280_temperature;BME280_humidity;BME280_pressure;Samples;Min_cycle;Max_cycle;Signal;HPM_P1;HPM_P2
2021/06/22 00:07:26;;;;;;;4.50;0.95;;;13.60;99.90;;;;;;20835833;28;20052;-51
2021/06/22 00:17:27;;;;;;;6.78;1.08;;;13.40;99.90;;;;;;20888322;28;20044;-51
2021/06/22 00:27:28;;;;;;;1.95;0.95;;;13.20;99.90;;;;;;20810645;28;20052;-50
2021/06/22 00:37:29;;;;;;;1.75;0.82;;;13.20;99.90;;;;;;20871276;28;20190;-51
2021/06/22 00:47:31;;;;;;;4.07;1.20;;;13.20;99.90;;;;;;20883197;28;20048;-51
2021/06/22 00:57:33;;;;;;;2.40;0.85;;;13.00;99.90;;;;;;20806659;28;20127;-50
2021/06/22 01:07:34;;;;;;;2.20;0.80;;;13.00;99.90;;;;;;20793097;28;20037;-50
2021/06/22 01:17:35;;;;;;;2.15;0.80;;;13.00;99.90;;;;;;20824963;28;20140;-50
2021/06/22 01:27:36;;;;;;;1.95;0.73;;;13.00;99.90;;;;;;20872935;28;20472;-50
2021/06/22 01:37:54;;;;;;;2.03;0.82;;;13.00;99.90;;;;;;20878870;28;20067;-51
2021/06/22 01:47:55;;;;;;;3.27;1.03;;;13.20;99.90;;;;;;20828742;28;20045;-50
2021/06/22 01:58:00;;;;;;;4.38;1.23;;;13.20;99.90;;;;;;20826188;28;20049;-50
2021/06/22 02:08:01;;;;;;;2.00;1.08;;;13.30;99.90;;;;;;20874779;28;20049;-50
2021/06/22 02:18:03;;;;;;;5.00;1.02;;;13.20;99.90;;;;;;20862456;28;20082;-50
2021/06/22 02:28:06;;;;;;;7.63;1.77;;;13.10;99.90;;;;;;20834836;28;20049;-50
2021/06/22 02:38:08;;;;;;;3.08;1.25;;;13.10;99.90;;;;;;20866407;28;20056;-50
2021/06/22 02:48:10;;;;;;;2.72;0.90;;;13.30;99.90;;;;;;20918724;28;20043;-52
2021/06/22 02:58:11;;;;;;;4.38;1.45;;;13.40;99.90;;;;;;20911221;28;20047;-52
2021/06/22 03:08:12;;;;;;;2.25;1.13;;;13.40;99.90;;;;;;20914592;28;20044;-51
2021/06/22 03:18:13;;;;;;;1.92;0.93;;;13.50;99.90;;;;;;20916544;28;20049;-52
2021/06/22 03:28:14;;;;;;;3.05;1.08;;;13.50;99.90;;;;;;20916095;28;20052;-52
2021/06/22 03:38:15;;;;;;;2.30;1.00;;;13.50;99.90;;;;;;20888586;28;20046;-51
2021/06/22 03:48:17;;;;;;;5.22;1.40;;;13.60;99.90;;;;;;20817986;28;20034;-50
2021/06/22 03:58:18;;;;;;;2.45;0.90;;;13.60;99.90;;;;;;20834636;28;20130;-49
2021/06/22 04:08:19;;;;;;;5.90;1.42;;;13.40;99.90;;;;;;20827569;28;20638;-49
2021/06/22 04:18:21;;;;;;;2.90;0.95;;;13.50;99.90;;;;;;20833362;28;20072;-51
2021/06/22 04:28:23;;;;;;;5.00;1.58;;;13.40;99.90;;;;;;20827219;28;20159;-52
2021/06/22 04:38:24;;;;;;;6.38;1.60;;;13.40;99.90;;;;;;20834778;28;20057;-51
2021/06/22 04:48:25;;;;;;;4.47;2.17;;;13.60;99.90;;;;;;20905893;28;20049;-52
2021/06/22 04:58:28;;;;;;;10.60;2.58;;;13.60;99.90;;;;;;20900661;28;20040;-51
2021/06/22 05:08:29;;;;;;;5.63;2.15;;;13.50;99.90;;;;;;20908690;28;20119;-51
2021/06/22 05:18:30;;;;;;;8.32;3.05;;;13.60;99.90;;;;;;20905557;28;20048;-51
2021/06/22 05:28:31;;;;;;;7.72;2.67;;;13.60;99.90;;;;;;20903904;28;20045;-52
2021/06/22 05:38:33;;;;;;;8.13;2.83;;;13.40;99.90;;;;;;20904109;28;20099;-52
2021/06/22 05:48:34;;;;;;;6.13;2.45;;;13.40;99.90;;;;;;20895564;28;20036;-51
2021/06/22 05:58:35;;;;;;;9.40;3.97;;;13.50;99.90;;;;;;20896126;28;20037;-51
2021/06/22 06:08:37;;;;;;;8.35;3.03;;;13.80;99.90;;;;;;20900331;28;20033;-51
2021/06/22 06:18:39;;;;;;;6.80;2.85;;;13.80;99.90;;;;;;20893653;28;20045;-52
2021/06/22 06:28:47;;;;;;;8.18;3.13;;;13.80;99.90;;;;;;20904645;28;20040;-51
2021/06/22 06:38:50;;;;;;;12.48;4.78;;;14.00;99.90;;;;;;20910738;28;20242;-52
2021/06/22 06:48:51;;;;;;;8.32;3.65;;;14.10;99.90;;;;;;20917207;28;20037;-52
2021/06/22 06:58:52;;;;;;;9.00;3.97;;;14.30;99.90;;;;;;20916763;28;20049;-51
2021/06/22 07:08:53;;;;;;;10.70;3.22;;;14.40;99.90;;;;;;20910484;28;20044;-51
2021/06/22 07:18:54;;;;;;;8.20;3.60;;;14.50;99.90;;;;;;20911061;28;20069;-52
2021/06/22 07:28:56;;;;;;;9.60;3.70;;;15.10;99.90;;;;;;20913722;28;20076;-52
2021/06/22 07:38:57;;;;;;;7.22;2.95;;;15.30;99.90;;;;;;20893644;28;20106;-52
2021/06/22 07:48:59;;;;;;;8.10;3.00;;;15.30;99.90;;;;;;20905350;28;20037;-51
2021/06/22 07:59:00;;;;;;;11.43;2.72;;;15.40;99.90;;;;;;20898394;28;20044;-51
2021/06/22 08:09:01;;;;;;;6.63;2.92;;;15.50;99.90;;;;;;20889810;28;20047;-51
2021/06/22 08:19:03;;;;;;;5.90;2.83;;;15.60;99.90;;;;;;20908850;28;20135;-51
2021/06/22 08:29:05;;;;;;;5.97;3.05;;;15.90;99.90;;;;;;20913995;28;20044;-51
2021/06/22 08:39:06;;;;;;;5.20;2.13;;;16.20;99.90;;;;;;20905369;28;20677;-48
2021/06/22 08:49:08;;;;;;;3.45;2.08;;;16.00;99.90;;;;;;20926242;28;20087;-48
2021/06/22 08:59:09;;;;;;;5.30;2.53;;;16.20;99.90;;;;;;20867678;28;20052;-49
2021/06/22 09:09:11;;;;;;;4.22;1.95;;;16.80;99.90;;;;;;20837739;28;20044;-49
2021/06/22 09:19:12;;;;;;;4.13;2.03;;;17.40;99.90;;;;;;20824267;28;20045;-49
2021/06/22 09:29:16;;;;;;;4.00;2.08;;;17.40;99.90;;;;;;20818245;28;20037;-49
2021/06/22 09:39:18;;;;;;;3.15;1.35;;;17.90;99.90;;;;;;20837690;28;20055;-49
2021/06/22 09:49:20;;;;;;;5.07;1.10;;;17.80;99.90;;;;;;20857249;28;20040;-49
2021/06/22 09:59:22;;;;;;;7.35;1.40;;;17.60;99.90;;;;;;20892638;28;20048;-50
2021/06/22 10:09:34;;;;;;;2.80;1.27;;;17.50;99.90;;;;;;20900269;28;20124;-49
2021/06/22 10:19:37;;;;;;;5.90;1.25;;;17.30;99.90;;;;;;20926456;28;20059;-49
2021/06/22 10:29:38;;;;;;;3.92;1.40;;;17.20;99.90;;;;;;20905060;28;20041;-49
2021/06/22 10:39:42;;;;;;;3.97;1.80;;;17.40;99.90;;;;;;20847742;28;20491;-49
2021/06/22 10:50:13;;;;;;;2.60;1.50;;;17.60;99.90;;;;;;20819714;28;20056;-49
2021/06/22 11:00:14;;;;;;;3.45;1.55;;;17.00;99.90;;;;;;20806339;28;21596;-49
2021/06/22 11:10:16;;;;;;;1.90;0.85;;;16.80;99.90;;;;;;20832111;28;20033;-50
2021/06/22 11:20:18;;;;;;;3.85;1.98;;;16.70;99.90;;;;;;20846943;28;20049;-49
2021/06/22 11:30:51;;;;;;;3.88;2.38;;;17.10;99.90;;;;;;20839696;28;20045;-50
2021/06/22 11:41:13;;;;;;;2.53;1.10;;;17.10;99.90;;;;;;20878204;28;123369;-50
2021/06/22 11:51:14;;;;;;;2.63;1.17;;;17.20;99.90;;;;;;20913152;28;20135;-50
2021/06/22 12:01:16;;;;;;;5.10;1.50;;;17.30;99.90;;;;;;20913471;28;20431;-50
2021/06/22 12:11:36;;;;;;;3.63;1.45;;;17.50;99.90;;;;;;20911618;28;20091;-50
2021/06/22 12:21:39;;;;;;;2.78;1.42;;;17.60;99.90;;;;;;20911808;28;20040;-50
2021/06/22 12:31:54;;;;;;;2.53;1.23;;;17.60;99.90;;;;;;20911934;28;20617;-50
2021/06/22 12:42:06;;;;;;;3.30;1.70;;;17.70;99.90;;;;;;20907040;28;20055;-49
2021/06/22 12:52:09;;;;;;;4.75;1.80;;;17.50;99.90;;;;;;20902445;28;20039;-49
2021/06/22 13:02:11;;;;;;;7.03;2.20;;;17.60;99.90;;;;;;20910507;28;20041;-50
2021/06/22 13:12:24;;;;;;;5.43;2.28;;;17.40;99.90;;;;;;20897834;28;20040;-50
2021/06/22 13:22:30;;;;;;;6.80;2.17;;;17.40;99.90;;;;;;20900412;28;20067;-49
2021/06/22 13:32:50;;;;;;;4.22;2.35;;;17.90;99.90;;;;;;20902033;28;20040;-50
2021/06/22 13:43:11;;;;;;;4.32;2.25;;;17.90;99.90;;;;;;20900887;28;20048;-50
2021/06/22 13:53:22;;;;;;;5.30;3.00;;;17.60;99.90;;;;;;20804207;28;20072;-50
2021/06/22 14:03:23;;;;;;;4.50;2.00;;;17.40;99.90;;;;;;20808786;28;20171;-50
2021/06/22 14:13:27;;;;;;;7.25;2.70;;;17.50;99.90;;;;;;20859476;28;20033;-49
2021/06/22 14:23:28;;;;;;;6.38;2.00;;;17.70;99.90;;;;;;20894344;28;20060;-50
2021/06/22 14:33:30;;;;;;;4.63;1.85;;;17.80;99.90;;;;;;20882890;28;20052;-50
2021/06/22 14:43:31;;;;;;;3.90;1.90;;;17.80;99.90;;;;;;20893122;28;20420;-49
2021/06/22 14:53:32;;;;;;;6.80;2.13;;;17.80;99.90;;;;;;20888203;28;20099;-49
2021/06/22 15:03:33;;;;;;;20.00;2.42;;;17.90;99.90;;;;;;20893404;28;20068;-50
2021/06/22 15:13:35;;;;;;;7.40;2.65;;;17.80;99.90;;;;;;20905283;28;20041;-49
2021/06/22 15:23:36;;;;;;;4.38;1.67;;;17.80;99.90;;;;;;20909586;28;20068;-49
2021/06/22 15:33:37;;;;;;;6.28;2.67;;;18.00;99.90;;;;;;20899931;28;20036;-49
2021/06/22 15:43:38;;;;;;;8.88;2.55;;;17.70;99.90;;;;;;20909827;28;20060;-49
2021/06/22 15:53:40;;;;;;;5.32;1.88;;;17.70;99.90;;;;;;20902600;28;20044;-49
2021/06/22 16:03:41;;;;;;;3.72;1.70;;;17.40;99.90;;;;;;20911476;28;20048;-49
2021/06/22 16:13:42;;;;;;;4.05;1.77;;;17.30;99.90;;;;;;20908903;28;20574;-49
2021/06/22 16:23:44;;;;;;;4.00;1.05;;;17.30;99.90;;;;;;20899483;28;20059;-49
2021/06/22 16:33:45;;;;;;;2.67;0.90;;;17.10;99.90;;;;;;20906725;28;21467;-49
2021/06/22 16:43:46;;;;;;;2.90;1.17;;;16.90;99.90;;;;;;20908438;28;20053;-49
2021/06/22 16:53:47;;;;;;;2.65;1.00;;;16.90;99.90;;;;;;20875767;28;20123;-49
2021/06/22 17:03:48;;;;;;;2.85;1.55;;;16.90;99.90;;;;;;20907502;28;20843;-49
2021/06/22 17:13:49;;;;;;;3.42;0.77;;;16.70;99.90;;;;;;20870921;28;20099;-49
2021/06/22 17:23:51;;;;;;;2.00;0.93;;;16.70;99.90;;;;;;20825474;28;20057;-50
2021/06/22 17:33:52;;;;;;;3.45;0.80;;;16.70;99.90;;;;;;20835252;28;20132;-49
2021/06/22 17:43:54;;;;;;;1.80;0.73;;;16.70;99.90;;;;;;20865194;28;20084;-50
2021/06/22 17:53:55;;;;;;;8.70;1.50;;;16.50;99.90;;;;;;20907416;28;20044;-49
2021/06/22 18:03:57;;;;;;;2.22;0.80;;;16.50;99.90;;;;;;20897957;28;20099;-49
2021/06/22 18:13:58;;;;;;;2.08;0.57;;;16.40;99.90;;;;;;20904060;28;20084;-49
2021/06/22 18:23:59;;;;;;;1.85;0.95;;;16.30;99.90;;;;;;20906365;28;20052;-49
2021/06/22 18:34:00;;;;;;;3.95;1.00;;;16.10;99.90;;;;;;20908018;28;20041;-49
2021/06/22 18:44:01;;;;;;;0.63;0.28;;;15.90;99.90;;;;;;20926147;28;20140;-49
2021/06/22 18:54:03;;;;;;;2.67;0.40;;;15.70;99.90;;;;;;20926667;28;20054;-50
2021/06/22 19:04:04;;;;;;;0.90;0.35;;;15.60;99.90;;;;;;20897305;28;20045;-49
2021/06/22 19:14:05;;;;;;;4.43;0.45;;;15.30;99.90;;;;;;20920929;28;20106;-50
2021/06/22 19:24:12;;;;;;;3.17;0.60;;;15.40;99.90;;;;;;20922346;28;20045;-49
2021/06/22 19:34:13;;;;;;;1.35;0.40;;;15.30;99.90;;;;;;20916942;28;20456;-50
2021/06/22 19:44:15;;;;;;;3.30;1.05;;;15.20;99.90;;;;;;20916362;28;20052;-49
2021/06/22 19:54:16;;;;;;;2.78;0.30;;;15.40;99.90;;;;;;20917650;28;20029;-50
2021/06/22 20:04:18;;;;;;;0.93;0.28;;;15.10;99.90;;;;;;20922283;28;20144;-50
2021/06/22 20:14:19;;;;;;;2.53;0.63;;;15.10;99.90;;;;;;20898691;28;20434;-50
2021/06/22 20:24:20;;;;;;;3.65;0.50;;;14.90;99.90;;;;;;20911395;28;20624;-52
2021/06/22 20:34:21;;;;;;;0.88;0.38;;;14.80;99.90;;;;;;20912427;28;20512;-49
2021/06/22 20:44:23;;;;;;;1.35;0.40;;;14.70;99.90;;;;;;20905866;28;20080;-49
2021/06/22 20:54:24;;;;;;;1.48;0.60;;;14.70;99.90;;;;;;20902855;28;20040;-49
2021/06/22 21:04:25;;;;;;;1.08;0.40;;;14.60;99.90;;;;;;20902793;28;20424;-49
2021/06/22 21:14:26;;;;;;;3.97;0.88;;;14.60;99.90;;;;;;20892253;28;20037;-49
2021/06/22 21:24:28;;;;;;;1.75;0.60;;;14.60;99.90;;;;;;20900324;28;20055;-51
2021/06/22 21:34:29;;;;;;;5.70;1.55;;;14.80;99.90;;;;;;20892388;28;20049;-51
2021/06/22 21:44:30;;;;;;;1.77;0.80;;;14.80;99.90;;;;;;20899085;28;20059;-49
2021/06/22 21:54:31;;;;;;;3.53;0.98;;;14.70;99.90;;;;;;20914597;28;20064;-49
2021/06/22 22:04:34;;;;;;;4.97;1.30;;;14.80;99.90;;;;;;20909966;28;20645;-49
2021/06/22 22:14:36;;;;;;;2.20;0.85;;;14.80;99.90;;;;;;20905184;28;20139;-49
2021/06/22 22:24:37;;;;;;;3.20;1.48;;;14.80;99.90;;;;;;20914227;28;20495;-49
2021/06/22 22:34:38;;;;;;;2.42;1.05;;;14.80;99.90;;;;;;20920726;28;20130;-48
2021/06/22 22:44:39;;;;;;;2.08;1.42;;;14.70;99.90;;;;;;20918320;28;20079;-49
2021/06/22 22:54:41;;;;;;;4.22;0.93;;;14.70;99.90;;;;;;20915309;28;20106;-49
2021/06/22 23:04:42;;;;;;;3.65;2.03;;;14.70;99.90;;;;;;20889174;28;20135;-49
2021/06/22 23:14:43;;;;;;;3.22;1.02;;;14.60;99.90;;;;;;20916616;28;20052;-49
2021/06/22 23:24:44;;;;;;;2.47;1.13;;;14.70;99.90;;;;;;20922803;28;20055;-51
2021/06/22 23:34:46;;;;;;;5.63;1.75;;;14.50;99.90;;;;;;20898633;28;20041;-51
2021/06/22 23:44:47;;;;;;;4.32;1.55;;;14.50;99.90;;;;;;20912233;28;20056;-49
2021/06/22 23:54:48;;;;;;;3.97;1.77;;;14.20;99.90;;;;;;20900885;28;20063;-51
